Durbuy, Belgium
Current Conditions -  °F | °C
As of 5:20 PM on Friday 24 Oct 2014 (Local Time) from EBLG Reporting Station
Broken Clouds Broken Clouds  
Wind Chill: 12°   Ceiling: 4000
Heat Index: 12°   Visibility: 6mi
Dew Point:   Wind: 10mph
Humidity: 77%   Direction: 180°S
Pressure: 30.06"   Gusts: NA
Location:  50.35°N, 5.46°E
Report Text: EBLG 241520Z 18009KT 9999 FEW021 BKN040 12/08 Q1018 NOSIG
Loading
Personal Weather Stations






























Interactive Weather Map
Tropical Storm Tracking
New forecast layout! Learn more

10-Day Weather Forecast

Advertisements
Track Severe Weather on mobile